Terminal Aerodrome Forecast
Issued by NWS Missoula, MT

Home | Current Version | Previous Version | Text Only | Print | Product List | Glossary On
Versions: 1 2 3 4 5 6 7 8 9 10 11 12 13 14 15 16 17 18 19 20 21
000
FTUS45 KMSO 012331
TAFMSO
TAF
KMSO 012331Z 0200/0224 13006KT P6SM VCSH OVC090
     FM020700 18010G20KT P6SM SHRA OVC040
     FM021000 VRB05KT P6SM VCSH SCT010 OVC030
     FM021600 31006KT P6SM VCSH OVC050=

USA.gov is the U.S. government's official web portal to all federal, state and local government web resources and services.